LUG weather

Ellington Airport
Lewisburg, Tennessee, United States

Public forecast

Using degrees Fahrenheit for public forecast. Weather courtesy of forecast.io.

METAR (pilot weather report)

Retrieved 2019/05/21 07:35 UTC (24 minutes ago):

KLUG 210735Z AUTO 00000KT 10SM CLR 13/13 A2993 RMK A01

TAF (pilot weather forecast)

Closest forecast is Smyrna Airport, 33.2 nm (61.4 km) NNE. Retrieved 2019/05/21 06:21 UTC (2 hours ago):

TAF KMQY 210520Z 2106/2206 09004KT P6SM SCT250 FM211400 16010KT P6SM SCT250 FM211700 18011G18KT P6SM SCT050